Time;durP1;ratioP1;P1;durP2;ratioP2;P2;SDS_P1;SDS_P2;PMS_P1;PMS_P2;Temp;Humidity;BMP_temperature;BMP_pressure;BME280_temperature;BME280_humidity;BME280_pressure;Samples;Min_cycle;Max_cycle;Signal;HPM_P1;HPM_P2
2023/04/07 00:00:26;;;;;;;20.75;16.23;;;7.30;99.90;;;;;;4986261;28;90314;-33
2023/04/07 00:02:52;;;;;;;19.52;13.80;;;7.30;99.90;;;;;;5041105;22;90016;-37
2023/04/07 00:05:18;;;;;;;20.73;14.10;;;7.30;99.90;;;;;;5005296;28;89659;-35
2023/04/07 00:07:44;;;;;;;20.63;16.05;;;7.30;99.90;;;;;;5017860;28;89607;-32
2023/04/07 00:10:10;;;;;;;23.98;16.77;;;7.30;99.90;;;;;;5005073;28;90014;-32
2023/04/07 00:12:35;;;;;;;21.75;14.77;;;7.30;99.90;;;;;;5018244;28;89527;-35
2023/04/07 00:15:01;;;;;;;22.05;16.33;;;7.30;99.90;;;;;;5017694;28;89832;-35
2023/04/07 00:17:27;;;;;;;18.05;14.48;;;7.30;99.90;;;;;;5018452;28;89630;-37
2023/04/07 00:19:52;;;;;;;22.10;16.35;;;7.30;99.90;;;;;;5017489;28;90530;-34
2023/04/07 00:22:18;;;;;;;19.33;15.20;;;7.30;99.90;;;;;;5017774;28;89678;-36
2023/04/07 00:24:43;;;;;;;22.33;15.50;;;7.30;99.90;;;;;;5017821;28;89937;-33
2023/04/07 00:27:09;;;;;;;17.92;14.68;;;7.30;99.90;;;;;;5018112;28;89242;-38
2023/04/07 00:29:35;;;;;;;22.90;15.38;;;7.30;99.90;;;;;;5017750;28;89938;-37
2023/04/07 00:32:00;;;;;;;24.00;16.23;;;7.30;99.90;;;;;;5016917;27;90519;-38
2023/04/07 00:34:26;;;;;;;19.42;15.32;;;7.30;99.90;;;;;;5021207;28;90486;-37
2023/04/07 00:36:52;;;;;;;22.02;15.18;;;7.30;99.90;;;;;;5021408;28;89292;-35
2023/04/07 00:39:18;;;;;;;22.70;15.13;;;7.30;99.90;;;;;;5020590;28;89689;-36
2023/04/07 00:41:44;;;;;;;22.58;16.10;;;7.30;99.90;;;;;;5021517;28;90949;-33
2023/04/07 00:44:10;;;;;;;21.50;16.60;;;7.30;99.90;;;;;;5020584;28;90140;-36
2023/04/07 00:46:36;;;;;;;20.83;15.60;;;7.30;99.90;;;;;;5021630;28;90707;-33
2023/04/07 00:49:02;;;;;;;22.08;15.65;;;7.30;99.90;;;;;;5021740;28;90579;-33
2023/04/07 00:51:28;;;;;;;23.23;15.82;;;7.20;99.90;;;;;;5021377;28;89809;-33
2023/04/07 00:53:54;;;;;;;22.92;16.10;;;7.20;99.90;;;;;;5020830;28;90094;-36
2023/04/07 00:56:20;;;;;;;21.80;15.65;;;7.20;99.90;;;;;;5020649;28;89222;-38
2023/04/07 00:58:45;;;;;;;22.17;16.77;;;7.20;99.90;;;;;;5019744;28;89020;-33
2023/04/07 01:01:29;;;;;;;23.73;16.02;;;7.20;99.90;;;;;;5021843;28;89727;-37
2023/04/07 01:04:06;;;;;;;20.02;15.88;;;7.20;99.90;;;;;;5009983;28;89614;-36
2023/04/07 01:06:36;;;;;;;22.17;15.82;;;7.20;99.90;;;;;;5021169;28;88170;-35
2023/04/07 01:09:06;;;;;;;20.08;15.77;;;7.20;99.90;;;;;;5020985;28;90100;-41
2023/04/07 01:12:04;;;;;;;21.73;15.93;;;7.20;99.90;;;;;;5002739;28;91160;-36
2023/04/07 01:14:35;;;;;;;23.75;15.93;;;7.20;99.90;;;;;;5021342;28;89313;-34
2023/04/07 01:17:05;;;;;;;24.80;17.10;;;7.20;99.90;;;;;;5020463;28;89411;-34
2023/04/07 01:19:42;;;;;;;24.95;15.85;;;7.20;99.90;;;;;;5019967;28;90552;-33
2023/04/07 01:22:21;;;;;;;21.92;15.55;;;7.20;99.90;;;;;;5020253;28;90494;-33
2023/04/07 01:25:12;;;;;;;27.00;18.85;;;7.20;99.90;;;;;;5020716;28;88859;-36
2023/04/07 01:28:00;;;;;;;22.92;17.38;;;7.20;99.90;;;;;;5020579;28;90285;-35
2023/04/07 01:30:35;;;;;;;21.70;16.75;;;7.20;99.90;;;;;;5001185;28;90479;-35
2023/04/07 01:33:02;;;;;;;22.55;16.40;;;7.20;99.90;;;;;;5020593;28;89622;-33
2023/04/07 01:35:31;;;;;;;24.40;18.93;;;7.20;99.90;;;;;;5020574;28;89794;-33
2023/04/07 01:37:57;;;;;;;24.15;16.38;;;7.20;99.90;;;;;;5020948;28;89546;-35
2023/04/07 01:40:24;;;;;;;21.85;17.52;;;7.20;99.90;;;;;;5020434;28;89752;-39
2023/04/07 01:42:51;;;;;;;28.13;19.13;;;7.20;99.90;;;;;;5020324;28;88106;-37
2023/04/07 01:45:17;;;;;;;22.42;17.20;;;7.10;99.90;;;;;;5000531;28;89920;-37
2023/04/07 01:47:44;;;;;;;22.95;18.13;;;7.10;99.90;;;;;;5019533;28;90276;-34
2023/04/07 01:50:11;;;;;;;28.30;17.90;;;7.10;99.90;;;;;;5020324;28;89369;-33
2023/04/07 01:52:38;;;;;;;29.02;17.83;;;7.10;99.90;;;;;;5020963;28;89458;-38
2023/04/07 01:55:05;;;;;;;21.75;15.95;;;7.10;99.90;;;;;;5019186;28;88880;-38
2023/04/07 01:57:31;;;;;;;27.90;19.10;;;7.20;99.90;;;;;;5019986;28;88990;-37
2023/04/07 01:59:57;;;;;;;29.02;18.30;;;7.10;99.90;;;;;;5019624;28;90251;-35
2023/04/07 02:02:23;;;;;;;23.85;16.25;;;7.20;99.90;;;;;;5019865;28;89395;-34
2023/04/07 02:04:55;;;;;;;27.77;18.98;;;7.20;99.90;;;;;;5019876;28;89334;-36
2023/04/07 02:07:50;;;;;;;23.90;17.63;;;7.20;99.90;;;;;;5010162;28;89119;-35
2023/04/07 02:10:20;;;;;;;22.70;17.40;;;7.10;99.90;;;;;;4991683;28;90293;-34
2023/04/07 02:12:46;;;;;;;23.92;16.50;;;7.10;99.90;;;;;;5019495;28;90609;-34
2023/04/07 02:15:12;;;;;;;27.60;18.23;;;7.20;99.90;;;;;;5020273;28;91590;-33
2023/04/07 02:17:41;;;;;;;23.15;16.77;;;7.10;99.90;;;;;;5019062;28;88573;-33
2023/04/07 02:20:10;;;;;;;21.10;16.58;;;7.10;99.90;;;;;;5019682;28;90367;-35
2023/04/07 02:22:37;;;;;;;22.92;16.50;;;7.10;99.90;;;;;;5019273;28;89656;-34
2023/04/07 02:25:26;;;;;;;21.65;17.50;;;7.10;99.90;;;;;;5019740;28;90506;-33
2023/04/07 02:27:53;;;;;;;22.98;17.25;;;7.10;99.90;;;;;;5020166;28;89552;-37
2023/04/07 02:30:19;;;;;;;24.40;17.33;;;7.10;99.90;;;;;;5020318;28;90389;-35
2023/04/07 02:32:45;;;;;;;22.52;18.00;;;7.10;99.90;;;;;;5018853;28;89490;-35
2023/04/07 02:35:11;;;;;;;23.58;18.05;;;7.10;99.90;;;;;;5020046;28;88720;-35
2023/04/07 02:37:37;;;;;;;20.83;16.63;;;7.10;99.90;;;;;;5018580;28;88690;-38
2023/04/07 02:40:04;;;;;;;27.25;19.15;;;7.10;99.90;;;;;;5019828;28;89827;-33
2023/04/07 02:42:30;;;;;;;24.35;19.70;;;7.20;99.90;;;;;;5019980;28;90331;-34
2023/04/07 02:44:56;;;;;;;22.52;17.27;;;7.10;99.90;;;;;;5018617;28;89255;-34
2023/04/07 02:47:21;;;;;;;23.83;16.85;;;7.10;99.90;;;;;;5019361;28;89077;-37
2023/04/07 02:49:47;;;;;;;21.63;17.67;;;7.10;99.90;;;;;;5018909;28;90223;-33
2023/04/07 02:52:13;;;;;;;24.10;18.88;;;7.10;99.90;;;;;;5018989;28;89710;-39
2023/04/07 02:54:38;;;;;;;24.80;17.98;;;7.10;99.90;;;;;;5020015;27;89119;-33
2023/04/07 02:57:04;;;;;;;25.08;17.95;;;7.10;99.90;;;;;;5018657;28;90218;-33
2023/04/07 02:59:29;;;;;;;21.23;16.02;;;7.10;99.90;;;;;;5019447;28;90171;-35
2023/04/07 03:01:55;;;;;;;30.73;17.95;;;7.10;99.90;;;;;;5017828;28;91053;-34
2023/04/07 03:04:21;;;;;;;20.42;16.27;;;7.10;99.90;;;;;;5019243;28;90355;-33
2023/04/07 03:06:47;;;;;;;20.33;15.80;;;7.10;99.90;;;;;;5019265;28;89421;-34
2023/04/07 03:09:13;;;;;;;26.02;17.38;;;7.10;99.90;;;;;;5018363;28;90501;-35
2023/04/07 03:11:40;;;;;;;19.45;16.02;;;7.10;99.90;;;;;;5018609;28;90496;-35
2023/04/07 03:14:06;;;;;;;26.02;16.48;;;7.10;99.90;;;;;;5019317;28;88238;-33
2023/04/07 03:16:31;;;;;;;25.23;17.40;;;7.00;99.90;;;;;;5019300;28;89064;-33
2023/04/07 03:18:57;;;;;;;19.58;15.77;;;7.10;99.90;;;;;;5019751;28;90773;-33
2023/04/07 03:21:22;;;;;;;23.40;16.00;;;7.10;99.90;;;;;;5017654;28;89716;-33
2023/04/07 03:23:48;;;;;;;21.92;16.27;;;7.10;99.90;;;;;;5018443;28;88746;-33
2023/04/07 03:26:14;;;;;;;21.67;16.17;;;7.10;99.90;;;;;;5018381;28;88682;-36
2023/04/07 03:28:39;;;;;;;25.42;16.42;;;7.00;99.90;;;;;;5019261;28;89127;-41
2023/04/07 03:31:05;;;;;;;25.13;15.45;;;7.10;99.90;;;;;;5018656;28;89778;-38
2023/04/07 03:33:31;;;;;;;20.40;14.90;;;7.10;99.90;;;;;;5018750;28;90442;-38
2023/04/07 03:35:56;;;;;;;19.33;14.73;;;7.10;99.90;;;;;;5018553;28;89462;-32
2023/04/07 03:38:22;;;;;;;22.55;15.80;;;7.20;99.90;;;;;;5018833;28;90019;-34
2023/04/07 03:40:47;;;;;;;20.30;14.25;;;7.10;99.90;;;;;;5018816;28;89454;-33
2023/04/07 03:43:14;;;;;;;22.23;16.40;;;7.10;99.90;;;;;;5018809;28;90246;-38
2023/04/07 03:45:40;;;;;;;27.17;16.42;;;7.10;99.90;;;;;;5005591;28;89713;-40
2023/04/07 03:48:10;;;;;;;15.55;13.80;;;7.10;99.90;;;;;;5019159;28;88825;-37
2023/04/07 03:50:37;;;;;;;24.40;17.13;;;7.10;99.90;;;;;;5017823;28;90262;-35
2023/04/07 03:53:02;;;;;;;20.00;15.05;;;7.10;99.90;;;;;;5018703;28;90525;-32
2023/04/07 03:55:28;;;;;;;20.52;14.40;;;7.10;99.90;;;;;;5018621;28;89475;-39
2023/04/07 03:57:54;;;;;;;22.55;15.68;;;7.10;99.90;;;;;;5018381;28;90736;-33
2023/04/07 04:00:19;;;;;;;23.73;16.42;;;7.10;99.90;;;;;;5018098;28;90086;-36
2023/04/07 04:02:45;;;;;;;30.02;18.75;;;7.00;99.90;;;;;;5018646;28;89327;-36
2023/04/07 04:05:11;;;;;;;22.73;17.15;;;7.10;99.90;;;;;;5017919;28;88404;-37
2023/04/07 04:07:36;;;;;;;21.10;16.95;;;7.10;99.90;;;;;;5017303;28;90666;-36
2023/04/07 04:10:02;;;;;;;22.95;15.65;;;7.00;99.90;;;;;;5017141;28;90700;-34
2023/04/07 04:12:28;;;;;;;24.13;18.00;;;7.10;99.90;;;;;;5018304;28;89675;-34
2023/04/07 04:14:53;;;;;;;20.98;15.60;;;7.10;99.90;;;;;;5017702;28;89359;-33
2023/04/07 04:17:19;;;;;;;22.98;17.92;;;7.00;99.90;;;;;;5017746;28;90152;-34
2023/04/07 04:19:44;;;;;;;22.83;14.80;;;7.00;99.90;;;;;;5017493;28;89607;-37
2023/04/07 04:22:10;;;;;;;20.60;14.50;;;7.00;99.90;;;;;;5018193;28;89518;-35
2023/04/07 04:24:36;;;;;;;23.45;15.55;;;6.90;99.90;;;;;;5018070;28;90433;-36
2023/04/07 04:27:01;;;;;;;19.05;14.52;;;6.90;99.90;;;;;;5017967;28;90695;-32
2023/04/07 04:29:27;;;;;;;19.83;13.93;;;7.00;99.90;;;;;;5017593;28;89783;-33
2023/04/07 04:31:53;;;;;;;18.85;15.10;;;6.90;99.90;;;;;;5018039;28;89627;-34
2023/04/07 04:34:18;;;;;;;20.65;14.18;;;6.90;99.90;;;;;;5017429;28;88353;-35
2023/04/07 04:36:44;;;;;;;22.95;17.05;;;7.00;99.90;;;;;;5017804;28;90209;-35
2023/04/07 04:39:09;;;;;;;19.38;15.15;;;7.00;99.90;;;;;;5016937;28;90404;-37
2023/04/07 04:41:36;;;;;;;20.38;15.60;;;7.00;99.90;;;;;;5018326;28;90632;-32
2023/04/07 04:44:01;;;;;;;29.90;14.23;;;7.00;99.90;;;;;;5017361;28;89458;-33
2023/04/07 04:46:27;;;;;;;24.10;15.57;;;7.00;99.90;;;;;;5017467;28;90267;-35
2023/04/07 04:48:53;;;;;;;26.80;16.75;;;7.00;99.90;;;;;;5017287;28;90129;-36
2023/04/07 04:51:19;;;;;;;23.70;16.73;;;7.00;99.90;;;;;;5008978;28;89900;-33
2023/04/07 04:53:44;;;;;;;24.92;16.40;;;7.00;99.90;;;;;;5016207;28;90358;-36
2023/04/07 04:56:10;;;;;;;23.17;16.63;;;6.90;99.90;;;;;;5017750;28;89911;-33
2023/04/07 04:58:39;;;;;;;22.60;16.67;;;7.00;99.90;;;;;;5016901;28;89865;-35
2023/04/07 05:01:04;;;;;;;22.13;16.27;;;6.90;99.90;;;;;;5017482;28;89806;-40
2023/04/07 05:03:30;;;;;;;20.92;15.85;;;6.90;99.90;;;;;;5017310;28;90042;-36
2023/04/07 05:05:56;;;;;;;22.10;16.17;;;6.90;99.90;;;;;;5016951;28;90804;-36
2023/04/07 05:08:21;;;;;;;21.98;16.60;;;6.90;99.90;;;;;;5017096;28;89834;-33
2023/04/07 05:10:47;;;;;;;22.33;16.90;;;6.90;99.90;;;;;;5016875;28;89578;-33
2023/04/07 05:13:13;;;;;;;22.00;17.15;;;6.90;99.90;;;;;;5017736;28;89401;-36
2023/04/07 05:15:40;;;;;;;24.40;14.15;;;6.90;99.90;;;;;;5017791;28;90253;-36
2023/04/07 05:18:05;;;;;;;26.42;20.23;;;6.90;99.90;;;;;;5016653;27;89568;-34
2023/04/07 05:20:31;;;;;;;24.88;18.48;;;6.90;99.90;;;;;;5020742;28;89842;-35
2023/04/07 05:22:57;;;;;;;21.27;15.60;;;7.00;99.90;;;;;;5019518;28;87989;-37
2023/04/07 05:25:22;;;;;;;28.50;16.65;;;7.00;99.90;;;;;;5020898;28;90746;-35
2023/04/07 05:27:48;;;;;;;23.15;16.13;;;7.00;99.90;;;;;;5019219;28;92864;-36
2023/04/07 05:30:14;;;;;;;21.58;15.60;;;7.00;99.90;;;;;;5020107;28;90578;-35
2023/04/07 05:32:40;;;;;;;20.17;15.50;;;7.00;99.90;;;;;;5020632;28;89242;-33
2023/04/07 05:35:06;;;;;;;24.05;16.55;;;6.90;99.90;;;;;;5020160;28;89188;-33
2023/04/07 05:37:31;;;;;;;21.75;15.73;;;6.90;99.90;;;;;;5020845;28;89803;-35
2023/04/07 05:39:57;;;;;;;23.52;15.77;;;6.90;99.90;;;;;;5019889;28;90024;-36
2023/04/07 05:42:23;;;;;;;17.63;14.57;;;6.90;99.90;;;;;;5020119;28;89591;-34
2023/04/07 05:44:48;;;;;;;24.75;17.45;;;6.90;99.90;;;;;;5019700;28;91403;-35
2023/04/07 05:47:14;;;;;;;23.05;16.70;;;6.90;99.90;;;;;;5020070;28;89746;-35
2023/04/07 05:49:44;;;;;;;28.45;18.50;;;6.90;99.90;;;;;;5020807;28;89560;-38
2023/04/07 05:52:11;;;;;;;27.20;17.25;;;6.90;99.90;;;;;;5001818;28;90576;-34
2023/04/07 05:54:38;;;;;;;29.60;20.08;;;6.90;99.90;;;;;;5020269;28;90048;-35
2023/04/07 05:57:03;;;;;;;25.98;16.67;;;6.90;99.90;;;;;;5019856;28;89246;-33
2023/04/07 05:59:29;;;;;;;24.65;16.27;;;6.80;99.90;;;;;;5020427;28;90024;-34
2023/04/07 06:01:55;;;;;;;21.85;17.05;;;6.90;99.90;;;;;;5019538;28;90066;-34
2023/04/07 06:04:20;;;;;;;21.15;16.20;;;6.90;99.90;;;;;;5020375;28;90266;-35
2023/04/07 06:06:46;;;;;;;24.15;17.90;;;6.90;99.90;;;;;;5019382;28;89436;-35
2023/04/07 06:09:12;;;;;;;23.23;17.20;;;7.00;99.90;;;;;;5020142;28;89472;-41
2023/04/07 06:11:37;;;;;;;26.00;18.20;;;6.90;99.90;;;;;;5020374;28;89295;-32
2023/04/07 06:14:03;;;;;;;23.08;16.52;;;7.00;99.90;;;;;;5019652;28;90321;-35
2023/04/07 06:16:28;;;;;;;25.27;16.35;;;7.00;99.90;;;;;;5019346;28;91331;-33
2023/04/07 06:18:54;;;;;;;22.20;18.40;;;7.00;99.90;;;;;;5019382;28;90562;-36
2023/04/07 06:21:20;;;;;;;21.42;15.52;;;7.00;99.90;;;;;;5019730;28;88049;-40
2023/04/07 06:23:45;;;;;;;23.35;14.55;;;7.00;99.90;;;;;;5019010;28;90263;-37
2023/04/07 06:26:11;;;;;;;24.08;16.02;;;7.00;99.90;;;;;;5019254;28;89654;-37
2023/04/07 06:28:37;;;;;;;21.02;15.75;;;7.00;99.90;;;;;;5019824;28;89047;-37
2023/04/07 06:31:03;;;;;;;24.50;15.93;;;7.00;99.90;;;;;;5018325;27;89165;-34
2023/04/07 06:33:29;;;;;;;22.10;15.60;;;7.10;99.90;;;;;;5019851;28;90085;-38
2023/04/07 06:35:55;;;;;;;22.10;16.98;;;7.10;99.90;;;;;;5019152;28;89978;-33
2023/04/07 06:38:21;;;;;;;25.80;17.05;;;7.10;99.90;;;;;;5018917;28;89437;-36
2023/04/07 06:40:46;;;;;;;21.65;15.50;;;7.10;99.90;;;;;;5018893;28;88818;-36
2023/04/07 06:43:12;;;;;;;17.98;15.18;;;7.20;99.90;;;;;;5018838;28;90537;-39
2023/04/07 06:45:38;;;;;;;20.55;16.17;;;7.20;99.90;;;;;;5018503;28;89515;-35
2023/04/07 06:48:03;;;;;;;20.95;15.52;;;7.20;99.90;;;;;;5019090;28;90703;-32
2023/04/07 06:50:29;;;;;;;20.00;15.43;;;7.20;99.90;;;;;;5019231;28;88145;-33
2023/04/07 06:52:54;;;;;;;26.33;16.15;;;7.30;99.90;;;;;;5018920;28;90367;-32
2023/04/07 06:55:20;;;;;;;22.13;15.60;;;7.30;99.90;;;;;;5018407;28;90129;-33
2023/04/07 06:57:46;;;;;;;26.77;17.50;;;7.30;99.90;;;;;;5019142;28;89550;-36
2023/04/07 07:00:12;;;;;;;18.10;15.77;;;7.30;99.90;;;;;;5018454;28;88929;-35
2023/04/07 07:02:37;;;;;;;17.80;15.05;;;7.40;99.90;;;;;;5018971;28;90329;-35
2023/04/07 07:05:03;;;;;;;22.58;15.50;;;7.40;99.90;;;;;;5018591;28;91074;-33
2023/04/07 07:07:29;;;;;;;17.15;14.82;;;7.50;99.90;;;;;;5018388;28;90609;-38
2023/04/07 07:09:55;;;;;;;22.00;16.52;;;7.50;99.90;;;;;;5018689;28;88363;-37
2023/04/07 07:12:20;;;;;;;18.58;15.73;;;7.60;99.90;;;;;;5018614;28;90148;-36
2023/04/07 07:14:46;;;;;;;26.42;16.23;;;7.60;99.90;;;;;;5018840;28;89832;-35
2023/04/07 07:17:12;;;;;;;18.17;13.73;;;7.70;99.90;;;;;;5018173;28;89508;-37
2023/04/07 07:19:37;;;;;;;19.55;14.80;;;7.70;99.90;;;;;;5018530;28;89121;-36
2023/04/07 07:22:03;;;;;;;20.88;15.43;;;7.70;99.90;;;;;;5019053;28;90195;-33
2023/04/07 07:24:32;;;;;;;19.95;14.98;;;7.80;99.90;;;;;;5018418;28;89182;-32
2023/04/07 07:26:58;;;;;;;19.00;14.25;;;7.80;99.90;;;;;;5017699;28;88412;-36
2023/04/07 07:29:24;;;;;;;19.48;15.77;;;7.80;99.90;;;;;;5018575;28;89657;-33
2023/04/07 07:31:50;;;;;;;19.13;13.65;;;7.90;99.90;;;;;;5017299;28;91270;-37
2023/04/07 07:34:15;;;;;;;17.63;13.75;;;7.90;99.90;;;;;;5018767;28;90123;-33
2023/04/07 07:36:41;;;;;;;20.48;13.95;;;7.90;99.90;;;;;;5018279;28;90029;-34
2023/04/07 07:39:06;;;;;;;14.38;12.95;;;7.90;99.90;;;;;;5018764;28;89166;-32
2023/04/07 07:41:32;;;;;;;20.35;14.38;;;7.90;99.90;;;;;;5018241;27;90431;-33
2023/04/07 07:43:58;;;;;;;40.38;14.95;;;7.90;99.90;;;;;;5016826;28;89725;-37
2023/04/07 07:46:24;;;;;;;18.00;13.75;;;7.90;99.90;;;;;;5018526;28;89759;-33
2023/04/07 07:48:50;;;;;;;18.38;13.20;;;7.90;99.90;;;;;;5018026;28;88761;-34
2023/04/07 07:51:17;;;;;;;14.40;12.55;;;8.00;99.90;;;;;;5018525;28;90342;-39
2023/04/07 07:53:44;;;;;;;21.00;13.45;;;8.10;99.90;;;;;;5018234;28;90755;-37
2023/04/07 07:56:10;;;;;;;17.73;14.77;;;8.10;99.90;;;;;;5018997;28;91963;-37
2023/04/07 07:58:36;;;;;;;18.85;13.75;;;8.10;99.90;;;;;;5018640;28;90305;-33
2023/04/07 08:01:02;;;;;;;16.58;13.13;;;8.00;99.90;;;;;;5017912;28;90308;-35
2023/04/07 08:03:27;;;;;;;19.77;14.88;;;8.10;99.90;;;;;;5017332;28;90078;-32
2023/04/07 08:05:53;;;;;;;16.92;14.60;;;8.10;99.90;;;;;;5017178;28;89014;-37
2023/04/07 08:08:19;;;;;;;17.95;14.07;;;8.10;99.90;;;;;;5017236;28;88844;-36
2023/04/07 08:10:44;;;;;;;20.33;13.18;;;8.10;99.90;;;;;;5016591;28;90128;-34
2023/04/07 08:13:10;;;;;;;18.25;13.90;;;8.20;99.90;;;;;;5017545;28;89343;-34
2023/04/07 08:15:36;;;;;;;17.10;13.70;;;8.20;99.90;;;;;;5016063;28;89806;-33
2023/04/07 08:18:03;;;;;;;18.88;12.10;;;8.20;99.90;;;;;;5016069;28;90225;-35
2023/04/07 08:20:30;;;;;;;16.75;13.07;;;8.20;99.90;;;;;;5030257;28;90271;-32
2023/04/07 08:22:56;;;;;;;13.13;11.48;;;8.20;99.90;;;;;;5031285;28;89295;-32
2023/04/07 08:25:21;;;;;;;16.52;11.93;;;8.30;99.90;;;;;;5023729;28;90066;-37
2023/04/07 08:27:47;;;;;;;13.57;9.98;;;8.20;99.90;;;;;;5017125;28;88278;-38
2023/04/07 08:30:13;;;;;;;17.90;13.10;;;8.20;99.90;;;;;;5017147;28;88961;-36
2023/04/07 08:32:45;;;;;;;17.50;13.45;;;8.10;99.90;;;;;;4998591;28;91373;-33
2023/04/07 08:35:11;;;;;;;17.65;11.77;;;8.20;99.90;;;;;;5017751;28;89694;-37
2023/04/07 08:37:37;;;;;;;16.55;13.50;;;8.30;99.90;;;;;;5016925;28;89396;-34
2023/04/07 08:40:04;;;;;;;13.27;11.25;;;8.30;99.90;;;;;;5016452;28;91612;-38
2023/04/07 08:42:32;;;;;;;15.63;11.75;;;8.40;99.90;;;;;;5016408;28;92372;-34
2023/04/07 08:45:03;;;;;;;15.27;12.40;;;8.40;99.90;;;;;;5017297;28;91641;-38
2023/04/07 08:47:34;;;;;;;18.27;14.00;;;8.50;99.90;;;;;;5004774;28;89804;-35
2023/04/07 08:50:02;;;;;;;16.23;10.70;;;8.60;99.90;;;;;;5019773;28;90491;-31
2023/04/07 08:52:48;;;;;;;;;;;8.60;99.90;;;;;;5030175;28;89410;-33
2023/04/07 08:55:14;;;;;;;13.02;11.75;;;8.70;99.90;;;;;;5021832;28;88652;-35
2023/04/07 08:57:41;;;;;;;14.88;13.10;;;8.70;99.90;;;;;;5020995;28;89873;-37
2023/04/07 09:00:07;;;;;;;18.98;12.88;;;8.70;99.90;;;;;;5020941;28;89374;-35
2023/04/07 09:02:35;;;;;;;18.30;12.93;;;8.70;99.90;;;;;;5020415;28;90339;-37
2023/04/07 09:05:03;;;;;;;15.65;12.88;;;8.80;99.90;;;;;;5019408;28;89915;-35
2023/04/07 09:07:30;;;;;;;13.13;11.80;;;8.80;99.90;;;;;;5020331;28;89970;-38
2023/04/07 09:09:56;;;;;;;12.40;11.10;;;9.00;99.90;;;;;;5020421;28;90629;-38
2023/04/07 09:12:21;;;;;;;16.80;12.52;;;9.00;99.90;;;;;;5019987;28;89364;-39
2023/04/07 09:14:47;;;;;;;17.80;13.52;;;8.90;99.90;;;;;;5020340;28;89710;-37
2023/04/07 09:17:12;;;;;;;17.15;11.85;;;8.90;99.90;;;;;;5020301;28;89824;-33
2023/04/07 09:19:38;;;;;;;17.10;12.45;;;8.90;99.90;;;;;;5019889;28;90913;-36
2023/04/07 09:22:04;;;;;;;16.67;13.90;;;9.10;99.90;;;;;;5020558;28;90002;-32
2023/04/07 09:24:32;;;;;;;16.88;11.30;;;9.10;99.90;;;;;;5020310;28;89515;-33
2023/04/07 09:27:16;;;;;;;19.67;13.80;;;9.10;99.90;;;;;;5019922;28;88036;-35
2023/04/07 09:29:43;;;;;;;15.57;11.82;;;9.10;99.90;;;;;;5020452;28;90307;-33
2023/04/07 09:32:09;;;;;;;14.98;12.45;;;9.20;99.90;;;;;;5019515;28;91015;-37
2023/04/07 09:34:38;;;;;;;14.85;11.00;;;9.20;99.90;;;;;;5020261;28;90530;-33
2023/04/07 09:37:06;;;;;;;14.20;10.65;;;9.30;99.90;;;;;;5020720;28;89806;-32
2023/04/07 09:39:32;;;;;;;15.37;10.43;;;9.40;99.90;;;;;;5020608;28;89786;-37
2023/04/07 09:41:58;;;;;;;11.85;9.93;;;9.50;99.90;;;;;;5019577;28;90901;-37
2023/04/07 09:44:24;;;;;;;13.45;11.10;;;9.50;99.90;;;;;;5020855;28;89298;-35
2023/04/07 09:46:57;;;;;;;14.20;10.25;;;9.50;99.90;;;;;;5020538;28;87611;-32
2023/04/07 09:49:26;;;;;;;11.70;9.90;;;9.60;99.90;;;;;;5020430;28;90787;-34
2023/04/07 09:52:06;;;;;;;12.25;10.35;;;9.60;99.90;;;;;;5020296;28;89935;-33
2023/04/07 09:54:40;;;;;;;13.00;11.27;;;9.70;99.90;;;;;;5019616;28;89515;-34
2023/04/07 09:57:11;;;;;;;13.93;9.20;;;9.60;99.90;;;;;;5019419;28;88555;-36
2023/04/07 09:59:41;;;;;;;15.35;9.63;;;9.60;99.90;;;;;;5021169;28;90588;-34
2023/04/07 10:02:07;;;;;;;10.95;9.38;;;9.60;99.90;;;;;;5020544;28;89537;-33
2023/04/07 10:04:33;;;;;;;11.38;9.02;;;9.60;99.90;;;;;;5020117;27;89424;-35
2023/04/07 10:06:59;;;;;;;13.07;9.27;;;9.50;99.90;;;;;;5020389;28;89901;-34
2023/04/07 10:09:29;;;;;;;11.35;9.25;;;9.50;99.90;;;;;;5001580;28;90011;-35
2023/04/07 10:11:57;;;;;;;11.82;9.90;;;9.50;99.90;;;;;;5021020;28;90014;-32
2023/04/07 10:14:27;;;;;;;13.63;9.77;;;9.50;99.90;;;;;;5020525;28;88754;-33
2023/04/07 10:16:53;;;;;;;14.63;9.57;;;9.50;99.90;;;;;;5019840;28;88168;-34
2023/04/07 10:19:20;;;;;;;11.30;8.52;;;9.60;99.90;;;;;;5020370;28;88991;-33
2023/04/07 10:21:50;;;;;;;11.18;9.40;;;9.70;99.90;;;;;;5019007;28;91103;-34
2023/04/07 10:24:25;;;;;;;12.95;8.98;;;9.80;99.90;;;;;;5002586;28;90423;-36
2023/04/07 10:26:55;;;;;;;10.23;7.97;;;9.70;99.90;;;;;;5020006;28;90129;-33
2023/04/07 10:29:22;;;;;;;15.82;9.98;;;9.70;99.90;;;;;;5019533;28;90873;-34
2023/04/07 10:31:48;;;;;;;10.68;9.00;;;9.70;99.90;;;;;;5019021;28;89375;-33
2023/04/07 10:34:14;;;;;;;10.27;8.23;;;9.70;99.90;;;;;;5020012;28;88557;-32
2023/04/07 10:37:12;;;;;;;9.50;8.30;;;9.60;99.90;;;;;;5019972;28;88816;-36
2023/04/07 10:39:38;;;;;;;10.20;8.57;;;9.60;99.90;;;;;;5009029;28;90078;-36
2023/04/07 10:42:03;;;;;;;8.70;7.90;;;9.60;99.90;;;;;;5019203;28;89706;-35
2023/04/07 10:44:38;;;;;;;10.98;8.43;;;9.60;99.90;;;;;;5019748;28;89435;-36
2023/04/07 10:47:05;;;;;;;8.88;7.38;;;9.60;99.90;;;;;;5018933;28;90180;-38
2023/04/07 10:49:32;;;;;;;10.68;8.00;;;9.50;99.90;;;;;;5020485;28;90143;-34
2023/04/07 10:52:10;;;;;;;11.20;7.63;;;9.60;99.90;;;;;;5019542;28;89949;-34
2023/04/07 10:54:36;;;;;;;9.88;7.65;;;9.60;99.90;;;;;;5019853;28;89018;-34
2023/04/07 10:57:02;;;;;;;9.30;8.27;;;9.70;99.90;;;;;;5018999;28;88939;-38
2023/04/07 10:59:32;;;;;;;10.20;9.05;;;9.80;99.90;;;;;;5020549;28;89958;-33
2023/04/07 11:02:13;;;;;;;10.00;8.65;;;9.80;99.90;;;;;;5019038;28;89601;-33
2023/04/07 11:04:41;;;;;;;12.18;8.40;;;9.90;99.90;;;;;;5020117;28;89039;-37
2023/04/07 11:07:07;;;;;;;10.20;8.90;;;9.90;99.90;;;;;;5020311;28;89712;-35
2023/04/07 11:09:33;;;;;;;11.40;10.15;;;9.90;99.90;;;;;;5019099;28;88885;-35
2023/04/07 11:11:59;;;;;;;12.05;9.52;;;10.00;99.90;;;;;;5018435;28;90866;-37
2023/04/07 11:14:29;;;;;;;11.75;10.20;;;10.00;99.90;;;;;;5019940;28;89802;-32
2023/04/07 11:16:55;;;;;;;10.55;8.43;;;10.10;99.90;;;;;;5019269;28;88211;-32
2023/04/07 11:19:21;;;;;;;14.70;10.85;;;10.10;99.90;;;;;;5018502;28;90609;-38
2023/04/07 11:21:47;;;;;;;12.02;10.60;;;10.30;99.90;;;;;;5018513;28;88811;-34
2023/04/07 11:24:32;;;;;;;11.95;9.38;;;10.30;99.90;;;;;;5017730;28;89546;-34
2023/04/07 11:26:57;;;;;;;12.88;10.07;;;10.50;99.90;;;;;;5018600;28;89623;-38
2023/04/07 11:29:31;;;;;;;10.88;9.38;;;10.60;99.90;;;;;;5018995;28;90278;-33
2023/04/07 11:32:01;;;;;;;9.57;8.35;;;10.70;99.90;;;;;;5018845;28;89381;-38
2023/04/07 11:34:30;;;;;;;9.95;7.93;;;10.70;99.90;;;;;;5018884;28;89542;-35
2023/04/07 11:36:58;;;;;;;8.82;7.68;;;10.70;99.90;;;;;;5018510;28;89929;-37
2023/04/07 11:39:30;;;;;;;9.73;7.78;;;10.70;99.90;;;;;;5006713;28;90222;-38
2023/04/07 11:41:56;;;;;;;8.73;7.82;;;10.70;99.90;;;;;;5000787;28;90116;-33
2023/04/07 11:44:22;;;;;;;10.63;6.93;;;10.70;99.90;;;;;;5019172;28;89758;-33
2023/04/07 11:46:56;;;;;;;9.63;7.18;;;10.70;99.90;;;;;;5020387;28;88710;-36
2023/04/07 11:49:23;;;;;;;10.55;8.48;;;10.60;99.90;;;;;;5019559;28;90339;-34
2023/04/07 11:52:01;;;;;;;8.65;7.82;;;10.50;99.90;;;;;;5015750;28;89535;-35
2023/04/07 11:54:38;;;;;;;13.55;7.55;;;10.60;99.90;;;;;;5016056;28;90095;-35
2023/04/07 11:57:03;;;;;;;10.38;7.15;;;10.60;99.90;;;;;;5015383;28;89114;-33
2023/04/07 11:59:29;;;;;;;8.35;6.85;;;10.60;99.90;;;;;;5015834;28;89192;-37
2023/04/07 12:01:56;;;;;;;6.88;6.20;;;10.60;99.90;;;;;;5045185;22;91993;-33
2023/04/07 12:04:21;;;;;;;7.60;6.57;;;10.60;99.90;;;;;;4994568;28;90436;-40
2023/04/07 12:06:48;;;;;;;8.32;6.55;;;10.70;99.90;;;;;;4992525;28;88538;-32
2023/04/07 12:09:34;;;;;;;7.95;6.68;;;10.60;99.90;;;;;;4994684;28;89476;-35
2023/04/07 12:12:01;;;;;;;6.90;5.55;;;10.70;99.90;;;;;;4971297;28;89702;-38
2023/04/07 12:14:27;;;;;;;7.22;6.53;;;10.70;99.90;;;;;;4991943;28;90410;-37
2023/04/07 12:16:55;;;;;;;8.10;6.90;;;10.80;99.90;;;;;;4976596;28;89657;-35
2023/04/07 12:19:22;;;;;;;7.47;4.93;;;10.80;99.90;;;;;;4992402;28;90195;-33
2023/04/07 12:21:48;;;;;;;6.53;5.83;;;10.80;99.90;;;;;;4994425;28;89619;-34
2023/04/07 12:24:13;;;;;;;8.93;7.78;;;10.90;99.90;;;;;;4982145;28;89143;-35
2023/04/07 12:26:39;;;;;;;7.45;5.90;;;11.00;99.90;;;;;;4995225;28;88742;-37
2023/04/07 12:29:05;;;;;;;9.05;7.80;;;11.10;99.90;;;;;;4997519;28;90136;-34
2023/04/07 12:31:31;;;;;;;9.65;6.60;;;11.20;99.90;;;;;;4998741;28;88991;-35
2023/04/07 12:33:57;;;;;;;7.45;6.75;;;11.30;99.90;;;;;;4998380;28;88316;-37
2023/04/07 12:36:25;;;;;;;6.80;6.13;;;11.40;99.90;;;;;;4980032;28;89126;-32
2023/04/07 12:38:50;;;;;;;7.50;6.80;;;11.40;99.90;;;;;;4996906;28;90396;-35